MOL Paramount — 3ECH9 — position and weather

sailwx.info

Track history (hours):
 
Tides and Currents Weather Stations Pressure Air Temp Water Temp Dewpoint Dewpoint Depression Visibility Wind Speed Wind Dir Waves Ship Positions

MOL Paramount

Last reported at 2016-Aug-24 17:22 UTC. Time now 2016-Aug-31 23:28 UTC.
Position N 28°51' W 094°01'.

Length 293 m; draft 11.8 m.

Type: Cargo ship. MMSI: 371519000.

Date/timePositionNaut miles runAvg speedWind from/ knotsBaromVisibWave heightAir tempDewpointWater temp
2016-Aug-24 17:22N 28°51' W 094°01'4213.9
2016-Aug-24 14:22N 29°18' W 094°37'1011.7
2016-Aug-24 13:29N 29°22' W 094°48'1011.0
2016-Aug-24 12:33N 29°31' W 094°53'1110.3
2016-Aug-24 11:32N 29°41' W 094°59'1 1.2
2016-Aug-24 10:24N 29°41' W 095°00'0 0.0
2016-Aug-24 09:27N 29°41' W 095°00'0 0.0
2016-Aug-24 08:21N 29°41' W 095°00'0 0.0
2016-Aug-24 06:24N 29°41' W 095°00'0 0.0
2016-Aug-24 03:21N 29°41' W 095°00'0 0.0
2016-Aug-24 02:21N 29°41' W 095°00'0 0.0
2016-Aug-24 01:30N 29°41' W 095°00'0 0.0
2016-Aug-24 00:24N 29°41' W 095°00'0 0.0
2016-Aug-23 23:15N 29°41' W 095°00'0 0.0
2016-Aug-23 22:30N 29°41' W 095°00'0 0.0
2016-Aug-23 20:24N 29°41' W 095°00'0 0.0
2016-Aug-23 19:33N 29°41' W 095°00'0 0.0
2016-Aug-23 18:21N 29°41' W 095°00'0 0.0
2016-Aug-23 17:33N 29°41' W 095°00'0 0.0
2016-Aug-23 16:30N 29°41' W 095°00'0 0.0
2016-Aug-23 15:24N 29°41' W 095°00'0 0.0
2016-Aug-23 14:27N 29°41' W 095°00'0 0.0
2016-Aug-23 13:30N 29°41' W 095°00'0 0.0
2016-Aug-23 12:24N 29°41' W 095°00'0 0.0
2016-Aug-23 11:24N 29°41' W 095°00'0 0.0
2016-Aug-23 10:27N 29°41' W 095°00'0 0.0
2016-Aug-23 05:33N 29°41' W 095°00'0 0.0
2016-Aug-23 04:24N 29°41' W 095°00'0 0.0
2016-Aug-23 03:09N 29°41' W 095°00'0 0.0
2016-Aug-23 02:21N 29°41' W 095°00'0 0.0
2016-Aug-23 00:15N 29°41' W 095°00'0 0.0
2016-Aug-22 22:33N 29°41' W 095°00'0 0.0
2016-Aug-22 20:30N 29°41' W 095°00'0 0.0
2016-Aug-22 18:03N 29°41' W 095°00'0 0.0
2016-Aug-22 17:24N 29°41' W 095°00'0 0.0
2016-Aug-22 16:24N 29°41' W 095°00'0 0.0
2016-Aug-22 15:27N 29°41' W 095°00'0 0.0
2016-Aug-22 14:18N 29°41' W 095°00'0 0.0
2016-Aug-22 13:33N 29°41' W 095°00'0 0.0
2016-Aug-22 11:27N 29°41' W 095°00'0 0.0
2016-Aug-22 10:33N 29°41' W 095°00'3 3.1
2016-Aug-22 09:33N 29°39' W 094°58'1111.3
2016-Aug-22 08:34N 29°29' W 094°51'1110.0
2016-Aug-22 07:29N 29°21' W 094°43'  
2016-Aug-19 12:33N 19°56' W 096°15'1413.6
2016-Aug-19 11:33N 19°43' W 096°10'1313.3
2016-Aug-19 10:33N 19°31' W 096°04'1313.1
2016-Aug-19 09:33N 19°20' W 095°58'1010.1
2016-Aug-19 08:33N 19°12' W 096°04'4 3.5
2016-Aug-19 07:32N 19°13' W 096°08'0 0.0
2016-Aug-19 06:32N 19°13' W 096°08'0 0.0
2016-Aug-19 05:32N 19°13' W 096°08'0 0.0
2016-Aug-19 04:32N 19°13' W 096°08'0 0.0
2016-Aug-19 03:32N 19°13' W 096°08'0 0.0
2016-Aug-19 02:32N 19°13' W 096°08'0 0.0
2016-Aug-19 01:32N 19°13' W 096°08'0 0.0
2016-Aug-19 00:32N 19°13' W 096°08'0 0.0
2016-Aug-18 23:32N 19°13' W 096°08'0 0.0
2016-Aug-18 22:32N 19°13' W 096°08'0 0.0
2016-Aug-18 21:32N 19°13' W 096°08'0 0.0
2016-Aug-18 20:32N 19°13' W 096°08'0 0.0
2016-Aug-18 19:32N 19°13' W 096°08'0 0.0
2016-Aug-18 18:32N 19°13' W 096°08'0 0.0
2016-Aug-18 17:26N 19°13' W 096°08'0 0.0
2016-Aug-18 16:32N 19°13' W 096°08'1 0.7
2016-Aug-18 15:33N 19°12' W 096°07'8 7.8
2016-Aug-18 14:33N 19°13' W 095°59'1615.6
2016-Aug-18 13:33N 19°15' W 095°43'  
Track history (hours):
 
Tides and Currents Weather Stations Pressure Air Temp Water Temp Dewpoint Dewpoint Depression Visibility Wind Speed Wind Dir Waves Ship Positions

MOL Paramount

Last reported at 2016-Aug-24 17:22 UTC. Time now 2016-Aug-31 23:28 UTC.
Position N 28°51' W 094°01'.

Length 293 m; draft 11.8 m.

Type: Cargo ship. MMSI: 371519000.

Date/timePositionNaut miles runAvg speedWind from/ knotsBaromVisibWave heightAir tempDewpointWater temp
2016-Aug-24 17:22N 28°51' W 094°01'4213.9
2016-Aug-24 14:22N 29°18' W 094°37'1011.7
2016-Aug-24 13:29N 29°22' W 094°48'1011.0
2016-Aug-24 12:33N 29°31' W 094°53'1110.3
2016-Aug-24 11:32N 29°41' W 094°59'1 1.2
2016-Aug-24 10:24N 29°41' W 095°00'0 0.0
2016-Aug-24 09:27N 29°41' W 095°00'0 0.0
2016-Aug-24 08:21N 29°41' W 095°00'0 0.0
2016-Aug-24 06:24N 29°41' W 095°00'0 0.0
2016-Aug-24 03:21N 29°41' W 095°00'0 0.0
2016-Aug-24 02:21N 29°41' W 095°00'0 0.0
2016-Aug-24 01:30N 29°41' W 095°00'0 0.0
2016-Aug-24 00:24N 29°41' W 095°00'0 0.0
2016-Aug-23 23:15N 29°41' W 095°00'0 0.0
2016-Aug-23 22:30N 29°41' W 095°00'0 0.0
2016-Aug-23 20:24N 29°41' W 095°00'0 0.0
2016-Aug-23 19:33N 29°41' W 095°00'0 0.0
2016-Aug-23 18:21N 29°41' W 095°00'0 0.0
2016-Aug-23 17:33N 29°41' W 095°00'0 0.0
2016-Aug-23 16:30N 29°41' W 095°00'0 0.0
2016-Aug-23 15:24N 29°41' W 095°00'0 0.0
2016-Aug-23 14:27N 29°41' W 095°00'0 0.0
2016-Aug-23 13:30N 29°41' W 095°00'0 0.0
2016-Aug-23 12:24N 29°41' W 095°00'0 0.0
2016-Aug-23 11:24N 29°41' W 095°00'0 0.0
2016-Aug-23 10:27N 29°41' W 095°00'0 0.0
2016-Aug-23 05:33N 29°41' W 095°00'0 0.0
2016-Aug-23 04:24N 29°41' W 095°00'0 0.0
2016-Aug-23 03:09N 29°41' W 095°00'0 0.0
2016-Aug-23 02:21N 29°41' W 095°00'0 0.0
2016-Aug-23 00:15N 29°41' W 095°00'0 0.0
2016-Aug-22 22:33N 29°41' W 095°00'0 0.0
2016-Aug-22 20:30N 29°41' W 095°00'0 0.0
2016-Aug-22 18:03N 29°41' W 095°00'0 0.0
2016-Aug-22 17:24N 29°41' W 095°00'0 0.0
2016-Aug-22 16:24N 29°41' W 095°00'0 0.0
2016-Aug-22 15:27N 29°41' W 095°00'0 0.0
2016-Aug-22 14:18N 29°41' W 095°00'0 0.0
2016-Aug-22 13:33N 29°41' W 095°00'0 0.0
2016-Aug-22 11:27N 29°41' W 095°00'0 0.0
2016-Aug-22 10:33N 29°41' W 095°00'3 3.1
2016-Aug-22 09:33N 29°39' W 094°58'1111.3
2016-Aug-22 08:34N 29°29' W 094°51'1110.0
2016-Aug-22 07:29N 29°21' W 094°43'  
2016-Aug-19 12:33N 19°56' W 096°15'1413.6
2016-Aug-19 11:33N 19°43' W 096°10'1313.3
2016-Aug-19 10:33N 19°31' W 096°04'1313.1
2016-Aug-19 09:33N 19°20' W 095°58'1010.1
2016-Aug-19 08:33N 19°12' W 096°04'4 3.5
2016-Aug-19 07:32N 19°13' W 096°08'0 0.0
2016-Aug-19 06:32N 19°13' W 096°08'0 0.0
2016-Aug-19 05:32N 19°13' W 096°08'0 0.0
2016-Aug-19 04:32N 19°13' W 096°08'0 0.0
2016-Aug-19 03:32N 19°13' W 096°08'0 0.0
2016-Aug-19 02:32N 19°13' W 096°08'0 0.0
2016-Aug-19 01:32N 19°13' W 096°08'0 0.0
2016-Aug-19 00:32N 19°13' W 096°08'0 0.0
2016-Aug-18 23:32N 19°13' W 096°08'0 0.0
2016-Aug-18 22:32N 19°13' W 096°08'0 0.0
2016-Aug-18 21:32N 19°13' W 096°08'0 0.0
2016-Aug-18 20:32N 19°13' W 096°08'0 0.0
2016-Aug-18 19:32N 19°13' W 096°08'0 0.0
2016-Aug-18 18:32N 19°13' W 096°08'0 0.0
2016-Aug-18 17:26N 19°13' W 096°08'0 0.0
2016-Aug-18 16:32N 19°13' W 096°08'1 0.7
2016-Aug-18 15:33N 19°12' W 096°07'8 7.8
2016-Aug-18 14:33N 19°13' W 095°59'1615.6
2016-Aug-18 13:33N 19°15' W 095°43'  

Dump ship's entire track history